sensor_id;sensor_type;location;lat;lon;timestamp;P1;durP1;ratioP1;P2;durP2;ratioP2
179;SDS011;78;48.788;9.010;2023-04-16T00:00:25;40.90;;;17.47;;
179;SDS011;78;48.788;9.010;2023-04-16T00:02:52;40.33;;;17.50;;
179;SDS011;78;48.788;9.010;2023-04-16T00:05:18;38.53;;;17.10;;
179;SDS011;78;48.788;9.010;2023-04-16T00:07:44;46.70;;;20.10;;
179;SDS011;78;48.788;9.010;2023-04-16T00:10:10;42.50;;;18.73;;
179;SDS011;78;48.788;9.010;2023-04-16T00:12:36;40.80;;;17.23;;
179;SDS011;78;48.788;9.010;2023-04-16T00:15:02;36.83;;;16.40;;
179;SDS011;78;48.788;9.010;2023-04-16T00:17:28;39.37;;;16.93;;
179;SDS011;78;48.788;9.010;2023-04-16T00:19:54;41.30;;;18.80;;
179;SDS011;78;48.788;9.010;2023-04-16T00:22:20;36.13;;;16.47;;
179;SDS011;78;48.788;9.010;2023-04-16T00:24:46;38.03;;;16.93;;
179;SDS011;78;48.788;9.010;2023-04-16T00:27:12;36.80;;;16.40;;
179;SDS011;78;48.788;9.010;2023-04-16T00:29:37;41.37;;;18.00;;
179;SDS011;78;48.788;9.010;2023-04-16T00:32:03;45.00;;;18.60;;
179;SDS011;78;48.788;9.010;2023-04-16T00:34:30;41.07;;;19.07;;
179;SDS011;78;48.788;9.010;2023-04-16T00:36:56;44.10;;;19.10;;
179;SDS011;78;48.788;9.010;2023-04-16T00:39:22;44.10;;;19.90;;
179;SDS011;78;48.788;9.010;2023-04-16T00:41:48;37.10;;;16.53;;
179;SDS011;78;48.788;9.010;2023-04-16T00:44:14;38.20;;;17.33;;
179;SDS011;78;48.788;9.010;2023-04-16T00:46:40;38.37;;;17.80;;
179;SDS011;78;48.788;9.010;2023-04-16T00:49:06;41.00;;;17.50;;
179;SDS011;78;48.788;9.010;2023-04-16T00:51:34;43.07;;;19.00;;
179;SDS011;78;48.788;9.010;2023-04-16T00:54:00;37.40;;;16.23;;
179;SDS011;78;48.788;9.010;2023-04-16T00:56:26;38.40;;;17.20;;
179;SDS011;78;48.788;9.010;2023-04-16T00:58:53;33.70;;;14.80;;
179;SDS011;78;48.788;9.010;2023-04-16T01:01:20;37.40;;;16.77;;
179;SDS011;78;48.788;9.010;2023-04-16T01:03:46;36.23;;;15.70;;
179;SDS011;78;48.788;9.010;2023-04-16T01:06:13;37.33;;;15.90;;
179;SDS011;78;48.788;9.010;2023-04-16T01:08:40;34.20;;;15.07;;
179;SDS011;78;48.788;9.010;2023-04-16T01:11:06;34.00;;;14.97;;
179;SDS011;78;48.788;9.010;2023-04-16T01:13:32;41.53;;;16.00;;
179;SDS011;78;48.788;9.010;2023-04-16T01:15:59;44.33;;;17.20;;
179;SDS011;78;48.788;9.010;2023-04-16T01:18:25;42.30;;;18.60;;
179;SDS011;78;48.788;9.010;2023-04-16T01:20:52;35.73;;;16.50;;
179;SDS011;78;48.788;9.010;2023-04-16T01:23:18;31.93;;;13.93;;
179;SDS011;78;48.788;9.010;2023-04-16T01:25:44;37.67;;;16.33;;
179;SDS011;78;48.788;9.010;2023-04-16T01:28:11;37.07;;;15.37;;
179;SDS011;78;48.788;9.010;2023-04-16T01:30:37;31.20;;;13.17;;
179;SDS011;78;48.788;9.010;2023-04-16T01:33:03;33.63;;;14.00;;
179;SDS011;78;48.788;9.010;2023-04-16T01:35:30;38.50;;;14.70;;
179;SDS011;78;48.788;9.010;2023-04-16T01:37:56;30.60;;;12.90;;
179;SDS011;78;48.788;9.010;2023-04-16T01:40:22;35.10;;;13.73;;
179;SDS011;78;48.788;9.010;2023-04-16T01:42:48;38.87;;;15.00;;
179;SDS011;78;48.788;9.010;2023-04-16T01:45:15;31.80;;;13.23;;
179;SDS011;78;48.788;9.010;2023-04-16T01:47:41;31.60;;;13.47;;
179;SDS011;78;48.788;9.010;2023-04-16T01:50:07;35.77;;;14.20;;
179;SDS011;78;48.788;9.010;2023-04-16T01:52:33;33.53;;;12.80;;
179;SDS011;78;48.788;9.010;2023-04-16T01:54:59;34.87;;;14.17;;
179;SDS011;78;48.788;9.010;2023-04-16T01:57:25;34.63;;;14.73;;
179;SDS011;78;48.788;9.010;2023-04-16T01:59:51;30.50;;;13.10;;
179;SDS011;78;48.788;9.010;2023-04-16T02:02:17;33.47;;;13.80;;
179;SDS011;78;48.788;9.010;2023-04-16T02:04:44;32.10;;;13.70;;
179;SDS011;78;48.788;9.010;2023-04-16T02:07:10;39.03;;;15.80;;
179;SDS011;78;48.788;9.010;2023-04-16T02:09:37;31.93;;;13.30;;
179;SDS011;78;48.788;9.010;2023-04-16T02:12:03;34.37;;;13.87;;
179;SDS011;78;48.788;9.010;2023-04-16T02:14:30;40.27;;;15.73;;
179;SDS011;78;48.788;9.010;2023-04-16T02:16:56;31.83;;;13.10;;
179;SDS011;78;48.788;9.010;2023-04-16T02:19:22;35.40;;;14.07;;
179;SDS011;78;48.788;9.010;2023-04-16T02:21:52;34.20;;;13.80;;
179;SDS011;78;48.788;9.010;2023-04-16T02:24:19;31.87;;;13.10;;
179;SDS011;78;48.788;9.010;2023-04-16T02:26:45;34.70;;;13.87;;
179;SDS011;78;48.788;9.010;2023-04-16T02:29:11;36.53;;;13.00;;
179;SDS011;78;48.788;9.010;2023-04-16T02:31:37;32.00;;;12.50;;
179;SDS011;78;48.788;9.010;2023-04-16T02:34:04;32.50;;;12.57;;
179;SDS011;78;48.788;9.010;2023-04-16T02:36:30;33.53;;;13.27;;
179;SDS011;78;48.788;9.010;2023-04-16T02:38:57;34.33;;;13.70;;
179;SDS011;78;48.788;9.010;2023-04-16T02:41:23;35.23;;;13.80;;
179;SDS011;78;48.788;9.010;2023-04-16T02:43:49;34.40;;;13.43;;
179;SDS011;78;48.788;9.010;2023-04-16T02:46:15;31.40;;;12.83;;
179;SDS011;78;48.788;9.010;2023-04-16T02:48:41;34.83;;;13.30;;
179;SDS011;78;48.788;9.010;2023-04-16T02:51:07;36.47;;;14.00;;
179;SDS011;78;48.788;9.010;2023-04-16T02:53:33;36.47;;;14.43;;
179;SDS011;78;48.788;9.010;2023-04-16T02:55:59;39.00;;;15.07;;
179;SDS011;78;48.788;9.010;2023-04-16T02:58:25;39.07;;;15.73;;
179;SDS011;78;48.788;9.010;2023-04-16T03:00:52;36.90;;;15.00;;
179;SDS011;78;48.788;9.010;2023-04-16T03:03:18;39.90;;;16.33;;
179;SDS011;78;48.788;9.010;2023-04-16T03:05:45;37.37;;;15.10;;
179;SDS011;78;48.788;9.010;2023-04-16T03:08:12;36.90;;;15.00;;
179;SDS011;78;48.788;9.010;2023-04-16T03:10:38;36.97;;;15.47;;
179;SDS011;78;48.788;9.010;2023-04-16T03:13:05;40.57;;;16.20;;
179;SDS011;78;48.788;9.010;2023-04-16T03:15:31;38.90;;;15.67;;
179;SDS011;78;48.788;9.010;2023-04-16T03:17:58;40.80;;;15.57;;
179;SDS011;78;48.788;9.010;2023-04-16T03:20:24;39.30;;;16.23;;
179;SDS011;78;48.788;9.010;2023-04-16T03:22:50;37.60;;;15.50;;
179;SDS011;78;48.788;9.010;2023-04-16T03:25:16;39.10;;;15.57;;
179;SDS011;78;48.788;9.010;2023-04-16T03:27:42;39.33;;;15.60;;
179;SDS011;78;48.788;9.010;2023-04-16T03:30:12;38.33;;;15.33;;
179;SDS011;78;48.788;9.010;2023-04-16T03:32:38;40.70;;;15.73;;
179;SDS011;78;48.788;9.010;2023-04-16T03:35:04;38.07;;;15.37;;
179;SDS011;78;48.788;9.010;2023-04-16T03:37:30;36.07;;;13.97;;
179;SDS011;78;48.788;9.010;2023-04-16T03:39:56;42.17;;;15.43;;
179;SDS011;78;48.788;9.010;2023-04-16T03:42:22;38.40;;;14.47;;
179;SDS011;78;48.788;9.010;2023-04-16T03:44:48;40.60;;;15.40;;
179;SDS011;78;48.788;9.010;2023-04-16T03:47:15;41.23;;;16.00;;
179;SDS011;78;48.788;9.010;2023-04-16T03:49:41;38.33;;;15.10;;
179;SDS011;78;48.788;9.010;2023-04-16T03:52:07;39.53;;;15.17;;
179;SDS011;78;48.788;9.010;2023-04-16T03:54:33;35.17;;;14.80;;
179;SDS011;78;48.788;9.010;2023-04-16T03:56:58;35.33;;;14.80;;
179;SDS011;78;48.788;9.010;2023-04-16T03:59:25;42.80;;;17.07;;
179;SDS011;78;48.788;9.010;2023-04-16T04:01:51;39.47;;;16.10;;
179;SDS011;78;48.788;9.010;2023-04-16T04:04:16;41.20;;;15.57;;
179;SDS011;78;48.788;9.010;2023-04-16T04:06:43;35.97;;;14.70;;
179;SDS011;78;48.788;9.010;2023-04-16T04:09:10;39.20;;;15.30;;
179;SDS011;78;48.788;9.010;2023-04-16T04:11:36;36.67;;;13.77;;
179;SDS011;78;48.788;9.010;2023-04-16T04:14:03;36.27;;;13.53;;
179;SDS011;78;48.788;9.010;2023-04-16T04:16:29;35.97;;;13.33;;
179;SDS011;78;48.788;9.010;2023-04-16T04:18:55;32.00;;;12.33;;
179;SDS011;78;48.788;9.010;2023-04-16T04:21:21;34.43;;;13.37;;
179;SDS011;78;48.788;9.010;2023-04-16T04:23:47;35.90;;;13.17;;
179;SDS011;78;48.788;9.010;2023-04-16T04:26:14;35.00;;;12.63;;
179;SDS011;78;48.788;9.010;2023-04-16T04:28:40;34.40;;;13.00;;
179;SDS011;78;48.788;9.010;2023-04-16T04:31:06;33.20;;;12.37;;
179;SDS011;78;48.788;9.010;2023-04-16T04:33:32;39.00;;;14.33;;
179;SDS011;78;48.788;9.010;2023-04-16T04:35:58;33.07;;;12.77;;
179;SDS011;78;48.788;9.010;2023-04-16T04:38:24;37.50;;;13.63;;
179;SDS011;78;48.788;9.010;2023-04-16T04:40:50;34.13;;;13.20;;
179;SDS011;78;48.788;9.010;2023-04-16T04:43:17;38.90;;;14.37;;
179;SDS011;78;48.788;9.010;2023-04-16T04:45:43;34.93;;;13.30;;
179;SDS011;78;48.788;9.010;2023-04-16T04:48:10;35.27;;;13.57;;
179;SDS011;78;48.788;9.010;2023-04-16T04:50:36;38.60;;;14.40;;
179;SDS011;78;48.788;9.010;2023-04-16T04:53:02;36.53;;;14.63;;
179;SDS011;78;48.788;9.010;2023-04-16T04:55:33;38.10;;;14.30;;
179;SDS011;78;48.788;9.010;2023-04-16T04:57:59;39.67;;;14.77;;
179;SDS011;78;48.788;9.010;2023-04-16T05:00:25;41.63;;;14.37;;
179;SDS011;78;48.788;9.010;2023-04-16T05:02:51;37.90;;;14.73;;
179;SDS011;78;48.788;9.010;2023-04-16T05:05:17;35.47;;;13.20;;
179;SDS011;78;48.788;9.010;2023-04-16T05:07:44;39.80;;;14.77;;
179;SDS011;78;48.788;9.010;2023-04-16T05:10:10;38.33;;;14.90;;
179;SDS011;78;48.788;9.010;2023-04-16T05:12:36;39.83;;;15.90;;
179;SDS011;78;48.788;9.010;2023-04-16T05:15:04;44.37;;;16.73;;
179;SDS011;78;48.788;9.010;2023-04-16T05:17:31;58.93;;;22.50;;
179;SDS011;78;48.788;9.010;2023-04-16T05:19:57;58.93;;;22.07;;
179;SDS011;78;48.788;9.010;2023-04-16T05:22:22;54.07;;;21.30;;
179;SDS011;78;48.788;9.010;2023-04-16T05:24:48;56.70;;;23.50;;
179;SDS011;78;48.788;9.010;2023-04-16T05:27:14;60.57;;;24.00;;
179;SDS011;78;48.788;9.010;2023-04-16T05:29:40;62.23;;;23.90;;
179;SDS011;78;48.788;9.010;2023-04-16T05:32:06;52.97;;;22.40;;
179;SDS011;78;48.788;9.010;2023-04-16T05:34:32;59.33;;;24.43;;
179;SDS011;78;48.788;9.010;2023-04-16T05:36:58;71.93;;;28.27;;
179;SDS011;78;48.788;9.010;2023-04-16T05:39:25;69.47;;;26.90;;
179;SDS011;78;48.788;9.010;2023-04-16T05:41:51;63.63;;;25.33;;
179;SDS011;78;48.788;9.010;2023-04-16T05:44:17;77.17;;;28.73;;
179;SDS011;78;48.788;9.010;2023-04-16T05:46:43;66.60;;;25.37;;
179;SDS011;78;48.788;9.010;2023-04-16T05:49:09;71.73;;;28.30;;
179;SDS011;78;48.788;9.010;2023-04-16T05:51:35;73.83;;;28.83;;
179;SDS011;78;48.788;9.010;2023-04-16T05:54:01;81.17;;;29.10;;
179;SDS011;78;48.788;9.010;2023-04-16T05:56:27;81.33;;;29.70;;
179;SDS011;78;48.788;9.010;2023-04-16T05:58:53;73.30;;;29.07;;
179;SDS011;78;48.788;9.010;2023-04-16T06:01:20;78.60;;;30.07;;
179;SDS011;78;48.788;9.010;2023-04-16T06:03:46;72.57;;;28.93;;
179;SDS011;78;48.788;9.010;2023-04-16T06:06:12;70.17;;;27.30;;
179;SDS011;78;48.788;9.010;2023-04-16T06:08:37;78.13;;;29.53;;
179;SDS011;78;48.788;9.010;2023-04-16T06:11:03;64.10;;;28.07;;
179;SDS011;78;48.788;9.010;2023-04-16T06:13:29;83.50;;;30.83;;
179;SDS011;78;48.788;9.010;2023-04-16T06:15:55;70.07;;;28.03;;
179;SDS011;78;48.788;9.010;2023-04-16T06:18:21;64.83;;;25.60;;
179;SDS011;78;48.788;9.010;2023-04-16T06:20:47;90.23;;;33.27;;
179;SDS011;78;48.788;9.010;2023-04-16T06:23:13;81.67;;;29.73;;
179;SDS011;78;48.788;9.010;2023-04-16T06:25:39;85.67;;;31.60;;
179;SDS011;78;48.788;9.010;2023-04-16T06:28:05;92.60;;;32.30;;
179;SDS011;78;48.788;9.010;2023-04-16T06:30:32;74.00;;;30.03;;
179;SDS011;78;48.788;9.010;2023-04-16T06:32:58;68.20;;;29.67;;
179;SDS011;78;48.788;9.010;2023-04-16T06:35:24;72.67;;;29.67;;
179;SDS011;78;48.788;9.010;2023-04-16T06:37:50;67.50;;;27.30;;
179;SDS011;78;48.788;9.010;2023-04-16T06:40:16;80.07;;;29.03;;
179;SDS011;78;48.788;9.010;2023-04-16T06:42:42;92.53;;;30.30;;
179;SDS011;78;48.788;9.010;2023-04-16T06:45:11;61.47;;;26.03;;
179;SDS011;78;48.788;9.010;2023-04-16T06:47:37;67.67;;;28.73;;
179;SDS011;78;48.788;9.010;2023-04-16T06:50:03;77.97;;;30.03;;
179;SDS011;78;48.788;9.010;2023-04-16T06:52:29;70.27;;;28.50;;
179;SDS011;78;48.788;9.010;2023-04-16T06:54:55;75.40;;;29.97;;
179;SDS011;78;48.788;9.010;2023-04-16T06:57:21;75.50;;;31.07;;
179;SDS011;78;48.788;9.010;2023-04-16T06:59:47;69.43;;;30.37;;
179;SDS011;78;48.788;9.010;2023-04-16T07:02:13;67.30;;;27.93;;
179;SDS011;78;48.788;9.010;2023-04-16T07:04:39;66.40;;;27.80;;
179;SDS011;78;48.788;9.010;2023-04-16T07:07:05;72.70;;;29.03;;
179;SDS011;78;48.788;9.010;2023-04-16T07:09:31;60.97;;;26.10;;
179;SDS011;78;48.788;9.010;2023-04-16T07:11:57;72.00;;;29.40;;
179;SDS011;78;48.788;9.010;2023-04-16T07:14:23;70.80;;;28.10;;
179;SDS011;78;48.788;9.010;2023-04-16T07:16:49;61.70;;;26.93;;
179;SDS011;78;48.788;9.010;2023-04-16T07:19:15;58.93;;;24.63;;
179;SDS011;78;48.788;9.010;2023-04-16T07:21:42;60.63;;;25.03;;
179;SDS011;78;48.788;9.010;2023-04-16T07:24:09;69.57;;;27.17;;
179;SDS011;78;48.788;9.010;2023-04-16T07:26:38;69.23;;;26.40;;
179;SDS011;78;48.788;9.010;2023-04-16T07:29:03;60.20;;;25.50;;
179;SDS011;78;48.788;9.010;2023-04-16T07:31:29;57.07;;;23.80;;
179;SDS011;78;48.788;9.010;2023-04-16T07:33:56;59.70;;;25.37;;
179;SDS011;78;48.788;9.010;2023-04-16T07:36:23;63.03;;;25.93;;
179;SDS011;78;48.788;9.010;2023-04-16T07:38:51;65.97;;;27.30;;
179;SDS011;78;48.788;9.010;2023-04-16T07:41:18;64.90;;;26.47;;
179;SDS011;78;48.788;9.010;2023-04-16T07:43:44;64.80;;;27.63;;
179;SDS011;78;48.788;9.010;2023-04-16T07:46:11;66.17;;;27.57;;
179;SDS011;78;48.788;9.010;2023-04-16T07:48:36;60.63;;;25.30;;
179;SDS011;78;48.788;9.010;2023-04-16T07:51:03;64.93;;;27.40;;
179;SDS011;78;48.788;9.010;2023-04-16T07:53:29;70.83;;;31.00;;
179;SDS011;78;48.788;9.010;2023-04-16T07:55:55;67.97;;;26.37;;
179;SDS011;78;48.788;9.010;2023-04-16T07:58:22;58.83;;;25.80;;
179;SDS011;78;48.788;9.010;2023-04-16T08:00:48;58.87;;;25.33;;
179;SDS011;78;48.788;9.010;2023-04-16T08:03:15;57.50;;;24.40;;
179;SDS011;78;48.788;9.010;2023-04-16T08:05:42;62.07;;;25.90;;
179;SDS011;78;48.788;9.010;2023-04-16T08:08:08;55.80;;;23.80;;
179;SDS011;78;48.788;9.010;2023-04-16T08:10:35;53.40;;;24.10;;
179;SDS011;78;48.788;9.010;2023-04-16T08:13:01;54.47;;;24.53;;
179;SDS011;78;48.788;9.010;2023-04-16T08:15:28;53.03;;;24.33;;
179;SDS011;78;48.788;9.010;2023-04-16T08:17:55;60.50;;;24.97;;
179;SDS011;78;48.788;9.010;2023-04-16T08:20:21;56.60;;;24.83;;
179;SDS011;78;48.788;9.010;2023-04-16T08:22:48;59.30;;;24.27;;
179;SDS011;78;48.788;9.010;2023-04-16T08:25:15;50.43;;;22.07;;
179;SDS011;78;48.788;9.010;2023-04-16T08:27:41;56.20;;;24.30;;
179;SDS011;78;48.788;9.010;2023-04-16T08:30:08;53.30;;;24.03;;
179;SDS011;78;48.788;9.010;2023-04-16T08:32:34;54.80;;;24.10;;
179;SDS011;78;48.788;9.010;2023-04-16T08:35:01;54.30;;;24.00;;
179;SDS011;78;48.788;9.010;2023-04-16T08:37:28;49.03;;;21.33;;
179;SDS011;78;48.788;9.010;2023-04-16T08:39:56;59.00;;;23.93;;
179;SDS011;78;48.788;9.010;2023-04-16T08:42:28;51.67;;;22.30;;
179;SDS011;78;48.788;9.010;2023-04-16T08:45:03;57.00;;;22.30;;
179;SDS011;78;48.788;9.010;2023-04-16T08:47:33;51.67;;;22.67;;
179;SDS011;78;48.788;9.010;2023-04-16T08:50:01;46.03;;;19.87;;
179;SDS011;78;48.788;9.010;2023-04-16T08:52:28;51.53;;;20.43;;
179;SDS011;78;48.788;9.010;2023-04-16T08:54:58;48.80;;;20.60;;
179;SDS011;78;48.788;9.010;2023-04-16T08:57:28;45.80;;;20.13;;
179;SDS011;78;48.788;9.010;2023-04-16T08:59:55;45.63;;;20.20;;
179;SDS011;78;48.788;9.010;2023-04-16T09:02:22;50.73;;;21.13;;
179;SDS011;78;48.788;9.010;2023-04-16T09:04:50;52.93;;;21.77;;
179;SDS011;78;48.788;9.010;2023-04-16T09:07:17;50.83;;;21.07;;
179;SDS011;78;48.788;9.010;2023-04-16T09:09:44;50.20;;;20.90;;
179;SDS011;78;48.788;9.010;2023-04-16T09:12:12;55.47;;;22.17;;
179;SDS011;78;48.788;9.010;2023-04-16T09:14:38;51.77;;;20.70;;
179;SDS011;78;48.788;9.010;2023-04-16T09:17:05;49.67;;;21.17;;
179;SDS011;78;48.788;9.010;2023-04-16T09:19:31;54.43;;;22.23;;
179;SDS011;78;48.788;9.010;2023-04-16T09:21:57;49.73;;;21.27;;
179;SDS011;78;48.788;9.010;2023-04-16T09:24:23;56.50;;;23.10;;
179;SDS011;78;48.788;9.010;2023-04-16T09:26:50;50.30;;;21.07;;
179;SDS011;78;48.788;9.010;2023-04-16T09:29:33;52.00;;;21.57;;
179;SDS011;78;48.788;9.010;2023-04-16T09:32:00;52.67;;;21.67;;
179;SDS011;78;48.788;9.010;2023-04-16T09:34:28;57.30;;;23.47;;
179;SDS011;78;48.788;9.010;2023-04-16T09:36:57;56.93;;;22.53;;
179;SDS011;78;48.788;9.010;2023-04-16T09:39:38;55.63;;;21.67;;
179;SDS011;78;48.788;9.010;2023-04-16T09:42:04;56.17;;;21.80;;
179;SDS011;78;48.788;9.010;2023-04-16T09:44:37;61.63;;;22.87;;
179;SDS011;78;48.788;9.010;2023-04-16T09:47:07;54.90;;;21.90;;
179;SDS011;78;48.788;9.010;2023-04-16T09:49:34;54.40;;;22.07;;
179;SDS011;78;48.788;9.010;2023-04-16T09:52:01;52.73;;;22.97;;
179;SDS011;78;48.788;9.010;2023-04-16T09:54:27;55.73;;;21.93;;
179;SDS011;78;48.788;9.010;2023-04-16T09:56:55;51.70;;;21.90;;
179;SDS011;78;48.788;9.010;2023-04-16T09:59:22;57.33;;;22.57;;
179;SDS011;78;48.788;9.010;2023-04-16T10:01:48;51.23;;;20.67;;
179;SDS011;78;48.788;9.010;2023-04-16T10:04:16;53.67;;;22.47;;
179;SDS011;78;48.788;9.010;2023-04-16T10:06:42;62.37;;;25.50;;
179;SDS011;78;48.788;9.010;2023-04-16T10:09:12;58.67;;;26.50;;
179;SDS011;78;48.788;9.010;2023-04-16T10:11:38;59.20;;;24.17;;
179;SDS011;78;48.788;9.010;2023-04-16T10:14:04;57.70;;;25.20;;
179;SDS011;78;48.788;9.010;2023-04-16T10:16:30;50.43;;;22.30;;
179;SDS011;78;48.788;9.010;2023-04-16T10:18:56;58.80;;;23.07;;
179;SDS011;78;48.788;9.010;2023-04-16T10:21:23;56.00;;;24.37;;
179;SDS011;78;48.788;9.010;2023-04-16T10:23:51;54.90;;;22.30;;
179;SDS011;78;48.788;9.010;2023-04-16T10:26:17;55.87;;;22.67;;
179;SDS011;78;48.788;9.010;2023-04-16T10:28:43;56.00;;;23.63;;
179;SDS011;78;48.788;9.010;2023-04-16T10:31:10;51.73;;;21.50;;
179;SDS011;78;48.788;9.010;2023-04-16T10:33:38;54.63;;;22.67;;
179;SDS011;78;48.788;9.010;2023-04-16T10:38:33;53.80;;;21.40;;
179;SDS011;78;48.788;9.010;2023-04-16T10:41:03;52.27;;;22.30;;
179;SDS011;78;48.788;9.010;2023-04-16T10:43:29;52.17;;;22.37;;
179;SDS011;78;48.788;9.010;2023-04-16T10:45:56;48.53;;;20.17;;
179;SDS011;78;48.788;9.010;2023-04-16T10:48:23;49.07;;;21.37;;
179;SDS011;78;48.788;9.010;2023-04-16T10:50:57;48.53;;;19.73;;
179;SDS011;78;48.788;9.010;2023-04-16T10:53:24;47.00;;;19.40;;
179;SDS011;78;48.788;9.010;2023-04-16T10:58:26;46.30;;;20.00;;
179;SDS011;78;48.788;9.010;2023-04-16T11:00:52;45.10;;;18.90;;
179;SDS011;78;48.788;9.010;2023-04-16T11:03:18;44.57;;;18.10;;
179;SDS011;78;48.788;9.010;2023-04-16T11:05:45;46.50;;;18.93;;
179;SDS011;78;48.788;9.010;2023-04-16T11:08:12;46.60;;;19.20;;
179;SDS011;78;48.788;9.010;2023-04-16T11:10:39;46.33;;;18.03;;
179;SDS011;78;48.788;9.010;2023-04-16T11:13:05;40.53;;;16.93;;
179;SDS011;78;48.788;9.010;2023-04-16T11:15:31;38.80;;;15.83;;
179;SDS011;78;48.788;9.010;2023-04-16T11:17:58;37.27;;;14.83;;
179;SDS011;78;48.788;9.010;2023-04-16T11:20:25;52.97;;;21.67;;
179;SDS011;78;48.788;9.010;2023-04-16T11:22:52;68.80;;;29.50;;
179;SDS011;78;48.788;9.010;2023-04-16T11:25:19;39.87;;;15.83;;
179;SDS011;78;48.788;9.010;2023-04-16T11:27:46;36.97;;;14.90;;
179;SDS011;78;48.788;9.010;2023-04-16T11:30:12;39.20;;;16.63;;
179;SDS011;78;48.788;9.010;2023-04-16T11:32:38;34.90;;;13.07;;
179;SDS011;78;48.788;9.010;2023-04-16T11:35:12;35.10;;;14.37;;
179;SDS011;78;48.788;9.010;2023-04-16T11:37:38;31.90;;;12.17;;
179;SDS011;78;48.788;9.010;2023-04-16T11:40:05;32.07;;;12.70;;
179;SDS011;78;48.788;9.010;2023-04-16T11:42:31;32.73;;;12.40;;
179;SDS011;78;48.788;9.010;2023-04-16T11:44:58;29.43;;;11.10;;
179;SDS011;78;48.788;9.010;2023-04-16T11:47:24;30.20;;;11.87;;
179;SDS011;78;48.788;9.010;2023-04-16T11:49:51;30.47;;;10.93;;
179;SDS011;78;48.788;9.010;2023-04-16T11:52:27;32.20;;;12.00;;
179;SDS011;78;48.788;9.010;2023-04-16T11:54:54;30.80;;;11.00;;
179;SDS011;78;48.788;9.010;2023-04-16T11:57:23;28.23;;;10.50;;
179;SDS011;78;48.788;9.010;2023-04-16T11:59:49;30.53;;;10.67;;
179;SDS011;78;48.788;9.010;2023-04-16T12:02:15;30.80;;;11.53;;
179;SDS011;78;48.788;9.010;2023-04-16T12:04:41;28.53;;;10.13;;
179;SDS011;78;48.788;9.010;2023-04-16T12:07:13;26.47;;;9.37;;
179;SDS011;78;48.788;9.010;2023-04-16T12:09:40;28.70;;;10.90;;
179;SDS011;78;48.788;9.010;2023-04-16T12:12:28;33.73;;;11.00;;
179;SDS011;78;48.788;9.010;2023-04-16T12:14:54;24.17;;;8.30;;
179;SDS011;78;48.788;9.010;2023-04-16T12:17:21;25.80;;;9.20;;
179;SDS011;78;48.788;9.010;2023-04-16T12:19:51;32.50;;;11.73;;
179;SDS011;78;48.788;9.010;2023-04-16T12:22:26;31.70;;;11.67;;
179;SDS011;78;48.788;9.010;2023-04-16T12:24:57;27.90;;;10.60;;
179;SDS011;78;48.788;9.010;2023-04-16T12:27:23;27.87;;;10.40;;
179;SDS011;78;48.788;9.010;2023-04-16T12:30:01;25.87;;;8.90;;
179;SDS011;78;48.788;9.010;2023-04-16T12:32:27;25.80;;;9.70;;
179;SDS011;78;48.788;9.010;2023-04-16T12:34:53;25.80;;;9.60;;
179;SDS011;78;48.788;9.010;2023-04-16T12:37:20;26.90;;;10.10;;
179;SDS011;78;48.788;9.010;2023-04-16T12:39:45;28.80;;;9.80;;
179;SDS011;78;48.788;9.010;2023-04-16T12:42:11;29.30;;;10.03;;
179;SDS011;78;48.788;9.010;2023-04-16T12:44:38;25.93;;;9.50;;
179;SDS011;78;48.788;9.010;2023-04-16T12:47:04;26.90;;;9.60;;
179;SDS011;78;48.788;9.010;2023-04-16T12:49:30;27.83;;;10.50;;
179;SDS011;78;48.788;9.010;2023-04-16T12:51:56;26.40;;;9.83;;
179;SDS011;78;48.788;9.010;2023-04-16T12:54:22;28.77;;;10.60;;
179;SDS011;78;48.788;9.010;2023-04-16T12:56:52;30.97;;;11.47;;
179;SDS011;78;48.788;9.010;2023-04-16T12:59:19;28.60;;;10.83;;
179;SDS011;78;48.788;9.010;2023-04-16T13:01:44;29.00;;;10.83;;
179;SDS011;78;48.788;9.010;2023-04-16T13:04:10;27.73;;;10.40;;
179;SDS011;78;48.788;9.010;2023-04-16T13:06:36;25.50;;;9.30;;
179;SDS011;78;48.788;9.010;2023-04-16T13:09:03;26.23;;;9.13;;
179;SDS011;78;48.788;9.010;2023-04-16T13:11:29;25.17;;;9.33;;
179;SDS011;78;48.788;9.010;2023-04-16T13:13:55;30.10;;;10.57;;
179;SDS011;78;48.788;9.010;2023-04-16T13:16:21;28.20;;;10.27;;
179;SDS011;78;48.788;9.010;2023-04-16T13:18:47;28.27;;;9.73;;
179;SDS011;78;48.788;9.010;2023-04-16T13:21:14;26.63;;;9.73;;
179;SDS011;78;48.788;9.010;2023-04-16T13:23:40;27.43;;;9.63;;
179;SDS011;78;48.788;9.010;2023-04-16T13:26:06;38.13;;;15.57;;
179;SDS011;78;48.788;9.010;2023-04-16T13:28:32;31.87;;;12.17;;
179;SDS011;78;48.788;9.010;2023-04-16T13:30:58;37.50;;;15.40;;
179;SDS011;78;48.788;9.010;2023-04-16T13:33:24;29.90;;;11.87;;
179;SDS011;78;48.788;9.010;2023-04-16T13:35:50;31.60;;;12.23;;
179;SDS011;78;48.788;9.010;2023-04-16T13:38:16;34.40;;;14.30;;
179;SDS011;78;48.788;9.010;2023-04-16T13:40:44;29.43;;;12.40;;
179;SDS011;78;48.788;9.010;2023-04-16T13:43:10;32.27;;;13.10;;
179;SDS011;78;48.788;9.010;2023-04-16T13:45:37;30.50;;;11.40;;
179;SDS011;78;48.788;9.010;2023-04-16T13:48:03;29.50;;;10.97;;
179;SDS011;78;48.788;9.010;2023-04-16T13:50:30;31.07;;;12.60;;
179;SDS011;78;48.788;9.010;2023-04-16T13:52:55;34.40;;;13.20;;
179;SDS011;78;48.788;9.010;2023-04-16T13:55:22;28.40;;;11.07;;
179;SDS011;78;48.788;9.010;2023-04-16T13:57:49;33.53;;;13.13;;
179;SDS011;78;48.788;9.010;2023-04-16T14:00:17;32.23;;;13.00;;
179;SDS011;78;48.788;9.010;2023-04-16T14:02:43;34.63;;;12.43;;
179;SDS011;78;48.788;9.010;2023-04-16T14:05:10;36.17;;;13.13;;
179;SDS011;78;48.788;9.010;2023-04-16T14:07:36;34.33;;;14.40;;
179;SDS011;78;48.788;9.010;2023-04-16T14:10:02;36.00;;;13.80;;
179;SDS011;78;48.788;9.010;2023-04-16T14:12:29;38.97;;;15.53;;
179;SDS011;78;48.788;9.010;2023-04-16T14:14:56;32.10;;;13.60;;
179;SDS011;78;48.788;9.010;2023-04-16T14:17:22;40.07;;;15.80;;
179;SDS011;78;48.788;9.010;2023-04-16T14:19:48;36.27;;;14.87;;
179;SDS011;78;48.788;9.010;2023-04-16T14:22:15;40.37;;;16.37;;
179;SDS011;78;48.788;9.010;2023-04-16T14:24:42;36.13;;;15.00;;
179;SDS011;78;48.788;9.010;2023-04-16T14:27:08;34.50;;;14.57;;
179;SDS011;78;48.788;9.010;2023-04-16T14:29:34;37.90;;;15.17;;
179;SDS011;78;48.788;9.010;2023-04-16T14:32:00;36.70;;;14.60;;
179;SDS011;78;48.788;9.010;2023-04-16T14:34:26;39.20;;;15.90;;
179;SDS011;78;48.788;9.010;2023-04-16T14:36:52;34.87;;;14.43;;
179;SDS011;78;48.788;9.010;2023-04-16T14:39:18;38.07;;;16.07;;
179;SDS011;78;48.788;9.010;2023-04-16T14:41:44;38.60;;;16.30;;
179;SDS011;78;48.788;9.010;2023-04-16T14:44:10;39.87;;;16.20;;
179;SDS011;78;48.788;9.010;2023-04-16T14:46:36;38.93;;;16.30;;
179;SDS011;78;48.788;9.010;2023-04-16T14:49:04;44.70;;;19.40;;
179;SDS011;78;48.788;9.010;2023-04-16T14:51:30;45.17;;;18.73;;
179;SDS011;78;48.788;9.010;2023-04-16T14:53:57;47.17;;;19.80;;
179;SDS011;78;48.788;9.010;2023-04-16T14:56:23;44.00;;;18.60;;
179;SDS011;78;48.788;9.010;2023-04-16T14:58:49;48.60;;;20.37;;
179;SDS011;78;48.788;9.010;2023-04-16T15:01:15;47.80;;;20.57;;
179;SDS011;78;48.788;9.010;2023-04-16T15:03:41;52.20;;;22.03;;
179;SDS011;78;48.788;9.010;2023-04-16T15:06:08;49.97;;;20.77;;
179;SDS011;78;48.788;9.010;2023-04-16T15:08:34;52.10;;;21.93;;
179;SDS011;78;48.788;9.010;2023-04-16T15:11:00;52.43;;;22.60;;
179;SDS011;78;48.788;9.010;2023-04-16T15:13:26;57.00;;;22.67;;
179;SDS011;78;48.788;9.010;2023-04-16T15:15:58;51.57;;;21.43;;
179;SDS011;78;48.788;9.010;2023-04-16T15:18:24;64.50;;;26.23;;
179;SDS011;78;48.788;9.010;2023-04-16T15:20:50;50.60;;;21.87;;
179;SDS011;78;48.788;9.010;2023-04-16T15:23:18;55.47;;;23.77;;
179;SDS011;78;48.788;9.010;2023-04-16T15:25:44;54.20;;;23.90;;
179;SDS011;78;48.788;9.010;2023-04-16T15:28:10;55.33;;;24.03;;
179;SDS011;78;48.788;9.010;2023-04-16T15:30:37;51.60;;;22.70;;